createdAt,value
2019-02-18T00:01:06.996Z,43.63
2019-02-18T00:03:35.831Z,44.30
2019-02-18T00:06:04.677Z,43.27
2019-02-18T00:08:33.708Z,43.17
2019-02-18T00:11:04.431Z,42.37
2019-02-18T00:13:33.939Z,42.37
2019-02-18T00:16:03.940Z,41.13
2019-02-18T00:18:35.739Z,40.70
2019-02-18T00:21:04.698Z,41.37
2019-02-18T00:23:35.492Z,40.67
2019-02-18T00:26:05.754Z,40.23
2019-02-18T00:28:36.833Z,40.37
2019-02-18T00:31:05.385Z,42.20
2019-02-18T00:33:34.241Z,39.90
2019-02-18T00:36:03.199Z,39.33
2019-02-18T00:38:31.959Z,41.83
2019-02-18T00:41:00.865Z,42.83
2019-02-18T00:43:29.667Z,40.80
2019-02-18T00:45:58.406Z,40.30
2019-02-18T00:48:27.221Z,40.20
2019-02-18T00:50:56.273Z,39.37
2019-02-18T00:53:26.307Z,41.83
2019-02-18T00:55:55.261Z,40.40
2019-02-18T00:58:24.053Z,41.17
2019-02-18T01:00:52.971Z,40.13
2019-02-18T01:03:21.808Z,41.87
2019-02-18T01:05:50.732Z,39.93
2019-02-18T01:08:19.514Z,39.63
2019-02-18T01:10:48.349Z,41.17
2019-02-18T01:13:17.238Z,39.77
2019-02-18T01:15:46.059Z,40.50
2019-02-18T01:18:15.016Z,39.90
2019-02-18T01:20:44.396Z,39.53
2019-02-18T01:23:13.342Z,39.83
2019-02-18T01:25:42.175Z,39.00
2019-02-18T01:28:11.422Z,40.50
2019-02-18T01:30:40.173Z,40.47
2019-02-18T01:33:09.423Z,40.00
2019-02-18T01:35:38.297Z,39.13
2019-02-18T01:38:07.247Z,40.10
2019-02-18T01:40:36.111Z,39.37
2019-02-18T01:43:05.325Z,40.10
2019-02-18T01:45:34.447Z,40.90
2019-02-18T01:48:03.443Z,40.33
2019-02-18T01:50:32.365Z,39.97
2019-02-18T01:53:01.223Z,40.00
2019-02-18T01:55:30.152Z,38.70
2019-02-18T01:58:01.657Z,38.97
2019-02-18T02:00:30.600Z,38.47
2019-02-18T02:02:59.320Z,36.93
2019-02-18T02:05:28.097Z,37.57
2019-02-18T02:07:57.012Z,37.40
2019-02-18T02:10:26.555Z,38.93
2019-02-18T02:13:14.710Z,37.23
2019-02-18T02:15:43.568Z,37.53
2019-02-18T02:18:12.431Z,37.77
2019-02-18T02:20:41.411Z,39.77
2019-02-18T02:23:10.239Z,38.77
2019-02-18T02:25:39.100Z,39.53
2019-02-18T02:28:08.035Z,39.60
2019-02-18T02:30:39.478Z,38.43
2019-02-18T02:33:08.268Z,36.83
2019-02-18T02:35:37.230Z,37.03
2019-02-18T02:38:08.074Z,38.07
2019-02-18T02:40:38.178Z,36.40
2019-02-18T02:43:07.621Z,37.50
2019-02-18T02:45:36.298Z,38.00
2019-02-18T02:48:06.167Z,39.40
2019-02-18T02:50:36.423Z,39.03
2019-02-18T02:53:05.371Z,38.70
2019-02-18T02:55:34.043Z,39.60
2019-02-18T02:58:02.857Z,38.03
2019-02-18T03:00:31.557Z,36.23
2019-02-18T03:03:00.284Z,38.43
2019-02-18T03:05:29.132Z,37.43
2019-02-18T03:07:58.102Z,37.93
2019-02-18T03:10:28.017Z,39.23
2019-02-18T03:12:57.112Z,40.03
2019-02-18T03:15:26.015Z,38.73
2019-02-18T03:17:56.391Z,41.70
2019-02-18T03:20:26.384Z,39.70
2019-02-18T03:22:58.971Z,41.23
2019-02-18T03:25:30.093Z,41.43
2019-02-18T03:28:14.011Z,41.53
2019-02-18T03:30:48.645Z,39.10
2019-02-18T03:33:23.199Z,39.07
2019-02-18T03:35:52.124Z,40.37
2019-02-18T03:38:31.246Z,40.77
2019-02-18T03:41:02.498Z,38.80
2019-02-18T03:43:21.938Z,40.43
2019-02-18T03:45:50.784Z,42.37
2019-02-18T03:48:19.626Z,41.60
2019-02-18T03:50:48.734Z,42.60
2019-02-18T03:53:17.915Z,41.20
2019-02-18T03:55:48.717Z,41.57
2019-02-18T03:58:17.202Z,41.33
2019-02-18T04:00:47.622Z,41.23
2019-02-18T04:03:16.709Z,39.70
2019-02-18T04:05:45.500Z,44.13
2019-02-18T04:08:14.191Z,43.80
2019-02-18T04:10:42.955Z,43.00
2019-02-18T04:13:11.885Z,42.70
2019-02-18T04:15:40.889Z,41.60
2019-02-18T04:18:12.409Z,42.17
2019-02-18T04:20:41.235Z,42.23
2019-02-18T04:23:10.204Z,42.90
2019-02-18T04:25:38.912Z,40.90
2019-02-18T04:28:08.725Z,42.83
2019-02-18T04:30:37.422Z,43.77
2019-02-18T04:33:06.076Z,41.17
2019-02-18T04:35:35.101Z,40.70
2019-02-18T04:38:04.025Z,40.87
2019-02-18T04:40:32.714Z,40.97
2019-02-18T04:43:01.971Z,40.13
2019-02-18T04:45:30.933Z,39.80
2019-02-18T04:47:59.703Z,40.73
2019-02-18T04:50:28.395Z,40.93
2019-02-18T04:52:57.202Z,40.97
2019-02-18T04:55:25.891Z,42.20
2019-02-18T04:57:54.638Z,39.93
2019-02-18T05:00:25.621Z,39.57
2019-02-18T05:02:54.535Z,41.23
2019-02-18T05:05:23.434Z,39.43
2019-02-18T05:07:52.288Z,40.57
2019-02-18T05:10:21.187Z,40.63
2019-02-18T05:12:50.034Z,40.77
2019-02-18T05:15:18.741Z,42.63
2019-02-18T05:17:47.552Z,40.87
2019-02-18T05:20:16.514Z,42.70
2019-02-18T05:22:45.262Z,40.70
2019-02-18T05:25:14.188Z,42.53
2019-02-18T05:27:42.893Z,41.23
2019-02-18T05:30:12.267Z,41.77
2019-02-18T05:32:41.067Z,40.13
2019-02-18T05:35:09.977Z,41.63
2019-02-18T05:37:38.803Z,39.53
2019-02-18T05:40:08.528Z,42.77
2019-02-18T05:42:37.224Z,43.40
2019-02-18T05:45:08.429Z,44.67
2019-02-18T05:47:37.553Z,43.50
2019-02-18T05:50:08.053Z,41.77
2019-02-18T05:52:52.510Z,40.43
2019-02-18T05:55:38.420Z,41.20
2019-02-18T05:58:04.871Z,41.03
2019-02-18T06:00:33.657Z,43.30
2019-02-18T06:03:02.643Z,43.27
2019-02-18T06:05:31.403Z,42.67
2019-02-18T06:08:00.144Z,41.83
2019-02-18T06:10:29.067Z,38.20
2019-02-18T06:12:58.012Z,41.17
2019-02-18T06:15:27.047Z,40.30
2019-02-18T06:17:55.850Z,40.97
2019-02-18T06:20:24.686Z,40.07
2019-02-18T06:23:00.791Z,42.07
2019-02-18T06:25:33.729Z,42.17
2019-02-18T06:28:04.852Z,41.43
2019-02-18T06:30:33.538Z,40.63
2019-02-18T06:33:02.282Z,43.57
2019-02-18T06:35:31.053Z,41.97
2019-02-18T06:37:59.918Z,40.73
2019-02-18T06:40:28.797Z,40.83
2019-02-18T06:42:57.645Z,40.23
2019-02-18T06:45:43.225Z,39.43
2019-02-18T06:48:13.655Z,42.20
2019-02-18T06:50:42.427Z,41.43
2019-02-18T06:53:12.986Z,40.73
2019-02-18T06:55:42.157Z,39.93
2019-02-18T06:58:12.770Z,39.47
2019-02-18T07:00:43.496Z,41.27
2019-02-18T07:03:14.619Z,41.83
2019-02-18T07:05:44.997Z,41.77
2019-02-18T07:08:16.943Z,43.27
2019-02-18T07:10:50.391Z,41.90
2019-02-18T07:13:19.134Z,40.43
2019-02-18T07:15:47.875Z,41.07
2019-02-18T07:18:20.666Z,42.43
2019-02-18T07:20:51.344Z,43.77
2019-02-18T07:23:20.294Z,43.57
2019-02-18T07:25:49.176Z,44.27
2019-02-18T07:28:20.668Z,44.00
2019-02-18T07:30:49.450Z,44.17
2019-02-18T07:33:18.335Z,45.33
2019-02-18T07:35:47.103Z,45.80
2019-02-18T07:38:15.922Z,47.00
2019-02-18T07:40:44.815Z,47.63
2019-02-18T07:43:13.591Z,48.53
2019-02-18T07:45:42.257Z,45.67
2019-02-18T07:48:16.577Z,50.17
2019-02-18T07:50:48.551Z,45.87
2019-02-18T07:53:19.578Z,45.43
2019-02-18T07:55:48.473Z,45.30
2019-02-18T07:58:17.181Z,46.30
2019-02-18T08:00:49.129Z,43.30
2019-02-18T08:03:19.219Z,44.70
2019-02-18T08:05:48.237Z,48.77
2019-02-18T08:08:17.165Z,49.43
2019-02-18T08:10:45.914Z,50.40
2019-02-18T08:13:15.022Z,45.30
2019-02-18T08:15:43.676Z,43.10
2019-02-18T08:18:12.466Z,41.63
2019-02-18T08:20:41.908Z,43.50
2019-02-18T08:23:10.593Z,43.27
2019-02-18T08:25:39.468Z,44.27
2019-02-18T08:28:08.170Z,42.83
2019-02-18T08:30:37.016Z,41.47
2019-02-18T08:33:07.183Z,43.13
2019-02-18T08:35:35.996Z,42.40
2019-02-18T08:38:04.812Z,42.40
2019-02-18T08:40:33.464Z,41.80
2019-02-18T08:43:02.254Z,43.80
2019-02-18T08:45:31.380Z,38.40
2019-02-18T08:48:00.067Z,39.13
2019-02-18T08:50:28.899Z,39.83
2019-02-18T08:52:59.194Z,37.20
2019-02-18T08:55:27.855Z,40.07
2019-02-18T08:57:56.491Z,39.27
2019-02-18T09:00:25.360Z,39.53
2019-02-18T09:02:54.179Z,38.63
2019-02-18T09:05:26.252Z,39.20
2019-02-18T09:07:54.967Z,38.13
2019-02-18T09:10:33.426Z,37.30
2019-02-18T09:12:59.036Z,37.40
2019-02-18T09:15:27.900Z,33.03
2019-02-18T09:17:57.076Z,33.40
2019-02-18T09:20:25.940Z,35.10
2019-02-18T09:22:56.262Z,31.90
2019-02-18T09:25:38.684Z,34.77
2019-02-18T09:28:07.622Z,28.67
2019-02-18T09:30:38.361Z,30.53
2019-02-18T09:33:07.103Z,31.83
2019-02-18T09:35:35.943Z,30.43
2019-02-18T09:38:07.744Z,26.37
2019-02-18T09:40:44.206Z,26.70
2019-02-18T09:43:07.018Z,26.63
2019-02-18T09:45:35.890Z,27.90
2019-02-18T09:48:05.597Z,27.57
2019-02-18T09:50:36.206Z,28.83
2019-02-18T09:53:04.952Z,27.83
2019-02-18T09:55:36.842Z,24.40
2019-02-18T09:58:05.628Z,28.23
2019-02-18T10:00:34.438Z,26.77
2019-02-18T10:03:03.289Z,29.07
2019-02-18T10:05:32.056Z,24.20
2019-02-18T10:08:01.003Z,27.10
2019-02-18T10:10:29.834Z,29.87
2019-02-18T10:12:59.715Z,30.47
2019-02-18T10:15:28.838Z,27.60
2019-02-18T10:17:57.855Z,27.60
2019-02-18T10:20:26.584Z,27.43
2019-02-18T10:22:57.493Z,23.47
2019-02-18T10:25:26.006Z,23.53
2019-02-18T10:27:54.691Z,24.03
2019-02-18T10:30:23.680Z,25.70
2019-02-18T10:32:52.453Z,22.67
2019-02-18T10:35:26.361Z,21.87
2019-02-18T10:37:55.984Z,20.13
2019-02-18T10:40:24.936Z,20.10
2019-02-18T10:42:53.640Z,18.30
2019-02-18T10:45:25.655Z,17.90
2019-02-18T10:47:56.084Z,17.07
2019-02-18T10:50:24.904Z,18.77
2019-02-18T10:52:53.609Z,19.07
2019-02-18T10:56:05.206Z,19.20
2019-02-18T10:58:12.784Z,16.73
2019-02-18T11:00:41.760Z,16.37
2019-02-18T11:03:13.238Z,14.77
2019-02-18T11:05:42.366Z,16.63
2019-02-18T11:08:11.103Z,13.53
2019-02-18T11:10:39.928Z,15.37
2019-02-18T11:13:08.851Z,12.23
2019-02-18T11:15:37.582Z,12.03
2019-02-18T11:18:06.636Z,14.80
2019-02-18T11:20:35.398Z,14.87
2019-02-18T11:23:04.604Z,14.87
2019-02-18T11:25:33.362Z,15.93
2019-02-18T11:28:02.808Z,17.30
2019-02-18T11:30:31.727Z,14.53
2019-02-18T11:33:00.549Z,13.77
2019-02-18T11:35:29.500Z,13.80
2019-02-18T11:37:58.361Z,13.37
2019-02-18T11:40:27.301Z,15.17
2019-02-18T11:42:56.063Z,14.10
2019-02-18T11:45:25.029Z,13.33
2019-02-18T11:47:53.941Z,13.37
2019-02-18T11:50:22.741Z,12.80
2019-02-18T11:52:51.436Z,12.20
2019-02-18T11:55:20.373Z,12.83
2019-02-18T11:57:49.099Z,12.10
2019-02-18T12:00:18.048Z,12.90
2019-02-18T12:02:48.512Z,12.20
2019-02-18T12:05:17.350Z,13.87
2019-02-18T12:07:46.262Z,13.83
2019-02-18T12:10:16.786Z,12.67
2019-02-18T12:12:45.556Z,12.73
2019-02-18T12:15:17.413Z,12.27
2019-02-18T12:17:46.045Z,11.83
2019-02-18T12:20:18.313Z,14.10
2019-02-18T12:22:47.080Z,13.23
2019-02-18T12:25:15.819Z,13.23
2019-02-18T12:27:44.801Z,13.10
2019-02-18T12:30:17.820Z,12.90
2019-02-18T12:32:46.691Z,13.97
2019-02-18T12:35:31.052Z,12.27
2019-02-18T12:38:05.293Z,12.93
2019-02-18T12:40:48.159Z,11.97
2019-02-18T12:43:20.178Z,11.70
2019-02-18T12:46:03.371Z,11.87
2019-02-18T12:48:32.258Z,11.60
2019-02-18T12:51:01.173Z,12.30
2019-02-18T12:53:30.020Z,11.33
2019-02-18T12:55:58.898Z,12.30
2019-02-18T12:58:27.658Z,12.43
2019-02-18T13:00:58.177Z,11.33
2019-02-18T13:03:27.274Z,12.10
2019-02-18T13:05:57.389Z,12.53
2019-02-18T13:08:26.147Z,12.67
2019-02-18T13:10:59.099Z,8.93
2019-02-18T13:13:31.354Z,11.47
2019-02-18T13:16:00.005Z,10.43
2019-02-18T13:18:29.327Z,12.33
2019-02-18T13:21:06.994Z,12.53
2019-02-18T13:23:37.727Z,14.23
2019-02-18T13:26:09.240Z,13.00
2019-02-18T13:28:40.956Z,14.97
2019-02-18T13:31:10.479Z,13.00
2019-02-18T13:33:39.535Z,14.37
2019-02-18T13:36:13.777Z,13.90
2019-02-18T13:38:42.645Z,13.27
2019-02-18T13:41:11.516Z,13.10
2019-02-18T13:43:43.620Z,14.23
2019-02-18T13:46:12.294Z,13.93
2019-02-18T13:48:41.009Z,13.30
2019-02-18T13:51:09.856Z,13.80
2019-02-18T13:53:38.547Z,14.07
2019-02-18T13:56:10.213Z,13.07
2019-02-18T13:58:39.137Z,11.80
2019-02-18T14:01:08.983Z,14.47
2019-02-18T14:03:37.932Z,14.70
2019-02-18T14:06:09.015Z,14.60
2019-02-18T14:08:37.843Z,9.43
2019-02-18T14:11:08.075Z,15.07
2019-02-18T14:13:36.976Z,15.47
2019-02-18T14:16:06.213Z,16.30
2019-02-18T14:21:36.043Z,15.63
2019-02-18T14:24:05.346Z,15.40
2019-02-18T14:27:09.218Z,18.43
2019-02-18T14:29:12.411Z,17.40
2019-02-18T14:31:52.000Z,18.77
2019-02-18T14:34:23.599Z,17.50
2019-02-18T14:36:54.829Z,20.33
2019-02-18T14:39:31.694Z,17.73
2019-02-18T14:41:55.872Z,17.97
2019-02-18T14:44:24.609Z,18.33
2019-02-18T14:46:53.555Z,18.13
2019-02-18T14:49:22.827Z,15.77
2019-02-18T14:51:51.884Z,16.30
2019-02-18T14:54:22.595Z,18.50
2019-02-18T14:56:51.352Z,18.23
2019-02-18T14:59:20.210Z,15.13
2019-02-18T15:01:49.087Z,17.43
2019-02-18T15:04:18.384Z,19.03
2019-02-18T15:06:47.288Z,15.77
2019-02-18T15:09:33.861Z,20.77
2019-02-18T15:12:08.259Z,21.03
2019-02-18T15:14:37.556Z,22.23
2019-02-18T15:17:06.427Z,22.07
2019-02-18T15:19:35.291Z,23.47
2019-02-18T15:22:10.890Z,24.80
2019-02-18T15:24:39.725Z,23.50
2019-02-18T15:27:13.838Z,25.47
2019-02-18T15:29:42.546Z,25.90
2019-02-18T15:32:11.528Z,25.60
2019-02-18T15:34:40.195Z,24.17
2019-02-18T15:37:08.877Z,24.90
2019-02-18T15:39:37.712Z,24.23
2019-02-18T15:42:08.818Z,25.27
2019-02-18T15:44:37.941Z,25.33
2019-02-18T15:47:06.735Z,26.23
2019-02-18T15:49:35.723Z,25.43
2019-02-18T15:52:04.720Z,27.33
2019-02-18T15:54:34.997Z,26.20
2019-02-18T15:57:04.746Z,27.40
2019-02-18T15:59:33.451Z,30.27
2019-02-18T16:02:02.492Z,29.20
2019-02-18T16:04:31.281Z,28.37
2019-02-18T16:06:59.929Z,29.00
2019-02-18T16:09:28.836Z,27.60
2019-02-18T16:11:59.857Z,27.20
2019-02-18T16:14:28.966Z,28.67
2019-02-18T16:16:57.725Z,29.17
2019-02-18T16:19:26.597Z,28.50
2019-02-18T16:22:19.834Z,28.77
2019-02-18T16:24:48.707Z,29.53
2019-02-18T16:27:17.374Z,30.33
2019-02-18T16:29:46.284Z,29.43
2019-02-18T16:32:17.961Z,31.97
2019-02-18T16:34:46.765Z,33.03
2019-02-18T16:37:16.058Z,34.10
2019-02-18T16:39:44.719Z,34.00
2019-02-18T16:42:13.761Z,34.73
2019-02-18T16:44:42.482Z,34.40
2019-02-18T16:47:11.260Z,36.13
2019-02-18T16:49:39.942Z,36.80
2019-02-18T16:52:09.114Z,37.30
2019-02-18T16:54:38.209Z,35.83
2019-02-18T16:57:07.135Z,35.40
2019-02-18T16:59:40.334Z,34.40
2019-02-18T17:02:16.725Z,36.17
2019-02-18T17:04:59.464Z,34.80
2019-02-18T17:07:27.570Z,33.20
2019-02-18T17:09:56.248Z,34.00
2019-02-18T17:12:25.052Z,36.20
2019-02-18T17:14:53.901Z,34.53
2019-02-18T17:17:23.022Z,34.97
2019-02-18T17:19:51.922Z,35.00
2019-02-18T17:22:20.891Z,34.40
2019-02-18T17:24:50.007Z,34.60
2019-02-18T17:27:18.805Z,35.37
2019-02-18T17:29:47.963Z,34.33
2019-02-18T17:32:16.884Z,35.03
2019-02-18T17:34:45.528Z,35.20
2019-02-18T17:37:14.420Z,35.60
2019-02-18T17:42:52.833Z,37.20
2019-02-18T17:45:21.656Z,36.30
2019-02-18T17:47:50.649Z,31.47
2019-02-18T17:50:21.839Z,34.60
2019-02-18T17:52:50.778Z,38.97
2019-02-18T17:55:20.405Z,39.57
2019-02-18T17:57:53.824Z,37.03
2019-02-18T18:00:24.452Z,39.60
2019-02-18T18:02:53.357Z,41.20
2019-02-18T18:05:22.067Z,41.77
2019-02-18T18:07:50.746Z,40.37
2019-02-18T18:10:19.928Z,44.43
2019-02-18T18:12:48.818Z,44.47
2019-02-18T18:15:19.615Z,44.20
2019-02-18T18:17:48.438Z,44.40
2019-02-18T18:20:17.379Z,47.23
2019-02-18T18:22:48.930Z,45.47
2019-02-18T18:25:17.752Z,47.50
2019-02-18T18:27:48.150Z,46.23
2019-02-18T18:30:21.276Z,48.13
2019-02-18T18:32:51.666Z,47.77
2019-02-18T18:35:20.595Z,47.87
2019-02-18T18:37:49.458Z,49.13
2019-02-18T18:40:20.217Z,50.10
2019-02-18T18:42:51.876Z,50.27
2019-02-18T18:45:21.342Z,47.73
2019-02-18T18:47:50.042Z,49.60
2019-02-18T18:50:23.482Z,45.90
2019-02-18T18:52:53.667Z,51.03
2019-02-18T18:55:22.408Z,49.47
2019-02-18T18:57:51.186Z,50.37
2019-02-18T19:00:29.939Z,47.37
2019-02-18T19:02:59.081Z,51.90
2019-02-18T19:05:27.821Z,51.73
2019-02-18T19:07:56.486Z,53.50
2019-02-18T19:10:25.223Z,55.00
2019-02-18T19:12:54.078Z,55.93
2019-02-18T19:15:22.917Z,47.40
2019-02-18T19:17:51.662Z,52.27
2019-02-18T19:20:20.274Z,52.70
2019-02-18T19:22:49.062Z,52.40
2019-02-18T19:25:23.465Z,52.40
2019-02-18T19:28:04.925Z,52.97
2019-02-18T19:30:34.008Z,53.73
2019-02-18T19:33:02.886Z,57.90
2019-02-18T19:35:31.677Z,62.53
2019-02-18T19:38:00.375Z,66.33
2019-02-18T19:40:29.360Z,69.20
2019-02-18T19:42:58.053Z,66.37
2019-02-18T19:45:27.223Z,67.80
2019-02-18T19:47:55.959Z,65.77
2019-02-18T19:50:24.655Z,61.93
2019-02-18T19:52:53.538Z,61.13
2019-02-18T19:55:25.565Z,65.20
2019-02-18T19:57:54.687Z,61.73
2019-02-18T20:00:23.647Z,60.03
2019-02-18T20:02:52.436Z,59.83
2019-02-18T20:05:21.267Z,60.07
2019-02-18T20:07:50.050Z,59.77
2019-02-18T20:10:19.033Z,61.77
2019-02-18T20:12:47.784Z,61.60
2019-02-18T20:15:21.356Z,55.17
2019-02-18T20:18:10.543Z,53.20
2019-02-18T20:20:39.564Z,57.03
2019-02-18T20:23:13.639Z,55.37
2019-02-18T20:25:47.408Z,50.90
2019-02-18T20:28:16.292Z,59.90
2019-02-18T20:30:45.040Z,54.63
2019-02-18T20:33:14.096Z,63.20
2019-02-18T20:35:45.586Z,59.83
2019-02-18T20:38:14.369Z,65.93
2019-02-18T20:40:44.836Z,67.43
2019-02-18T20:43:13.485Z,62.93
2019-02-18T20:45:42.278Z,60.87
2019-02-18T20:48:11.207Z,66.20
2019-02-18T20:50:40.514Z,64.07
2019-02-18T20:53:12.866Z,61.47
2019-02-18T20:55:43.312Z,42.77
2019-02-18T20:58:12.083Z,63.17
2019-02-18T21:00:41.105Z,55.50
2019-02-18T21:03:09.720Z,67.00
2019-02-18T21:05:41.761Z,69.83
2019-02-18T21:08:10.558Z,66.17
2019-02-18T21:10:39.320Z,69.33
2019-02-18T21:13:08.424Z,68.13
2019-02-18T21:15:37.099Z,66.57
2019-02-18T21:18:05.934Z,62.03
2019-02-18T21:20:34.798Z,68.77
2019-02-18T21:23:03.526Z,70.47
2019-02-18T21:25:32.275Z,68.83
2019-02-18T21:28:01.018Z,71.60
2019-02-18T21:30:29.968Z,69.93
2019-02-18T21:33:00.186Z,69.43
2019-02-18T21:35:29.217Z,68.57
2019-02-18T21:38:01.064Z,73.57
2019-02-18T21:40:32.943Z,70.17
2019-02-18T21:43:04.469Z,66.37
2019-02-18T21:45:33.288Z,70.33
2019-02-18T21:48:04.932Z,68.07
2019-02-18T21:50:33.666Z,73.40
2019-02-18T21:53:02.414Z,63.97
2019-02-18T21:55:31.037Z,71.47
2019-02-18T21:57:59.829Z,70.23
2019-02-18T22:00:32.885Z,67.43
2019-02-18T22:03:02.029Z,73.50
2019-02-18T22:05:32.614Z,65.73
2019-02-18T22:08:01.379Z,70.67
2019-02-18T22:10:30.362Z,71.03
2019-02-18T22:12:59.045Z,64.77
2019-02-18T22:15:28.128Z,71.17
2019-02-18T22:17:57.245Z,72.13
2019-02-18T22:20:25.947Z,63.30
2019-02-18T22:22:54.643Z,67.73
2019-02-18T22:25:23.480Z,69.07
2019-02-18T22:27:53.292Z,68.00
2019-02-18T22:30:22.098Z,70.17
2019-02-18T22:32:50.869Z,69.33
2019-02-18T22:35:25.786Z,68.90
2019-02-18T22:37:56.679Z,73.03
2019-02-18T22:40:35.098Z,67.87
2019-02-18T22:43:18.750Z,69.43
2019-02-18T22:45:45.838Z,72.47
2019-02-18T22:54:13.119Z,78.57
2019-02-18T22:56:45.091Z,72.57
2019-02-18T22:59:15.182Z,73.07
2019-02-18T23:04:43.372Z,73.73
2019-02-18T23:07:12.282Z,74.90
2019-02-18T23:09:44.096Z,74.40
2019-02-18T23:12:12.982Z,74.80
2019-02-18T23:14:50.254Z,73.13
2019-02-18T23:18:10.495Z,69.10
2019-02-18T23:20:39.457Z,73.57
2019-02-18T23:23:28.343Z,78.20
2019-02-18T23:25:57.864Z,79.10
2019-02-18T23:28:26.790Z,81.27
2019-02-18T23:31:02.879Z,80.27
2019-02-18T23:33:31.619Z,85.93
2019-02-18T23:36:01.415Z,82.23
2019-02-18T23:38:30.134Z,62.43
2019-02-18T23:40:59.807Z,91.83
2019-02-18T23:43:28.578Z,88.13
2019-02-18T23:45:58.154Z,90.17
2019-02-18T23:48:28.941Z,94.57
2019-02-18T23:50:58.753Z,93.60
2019-02-18T23:53:29.547Z,93.73
2019-02-18T23:55:58.274Z,86.00
2019-02-18T23:58:26.983Z,84.77
